10:00
Airports
History
Links
Donate
Help keep this website running!
PayPal
Bitcoin
This page is community maintained. The information is intended for PC simulator navigation or reference.
Always use approved charts for navigation.
LIDU
Carpi Budrione
Carpi Budrione (LIDU)
Carpi, Emilia-Romagna, Italy (41012)
(U)
Lat/Lng:44° 50' 6" N / 10° 52' 18" E
44.834999 / 10.871667
Elevation:69'ft / 21mMSL
ID / ICAO:LIDU
Runways:1
Longest:02-20
Asphalt 853m / 2,799ft
Nearby Weather09:50 GMT 2017-11-18
Nearby weather at LIPE, BOLOGNA located 29.1 nautical miles from LIDU
Altimeter: 30.09
Visibility: 5.0 statute miles
Wind: 4 knots (from 300°)
Temp: 10°c / 50°f
Humidity: 71.0%

METAR: LIPE 180950Z 30004KT 230V320 8000 NSC 10/05 Q1019

(Powered by phpweather)
Nearby VORs <50NM
Nearby NDBs
Runway 02 / 20
Dimensions:853 x 28m 2799' x 92'ft
Surface:Asphalt
Runway 02 [A]Runway 20 [B]
Heading:020°TH 200°TH
Lat:
Lng:
44° 49' 53.06"N
10° 52' 11.36"E
44° 50' 18.93"N
10° 52' 24.64"E
User Notes and Comments
44° 50' 6" N / 10° 52' 18" E
Distance To
Airport ID:
Nearby Airports
(U) REGGIO EMILIA 13.9 NM
LIDE SW 227°
(R) Modena Marzaglia 14.2 NM
LIPM S 190°
4 Mantova 21.1 NM
LIDM N 349°
(C) PARMA 28.2 NM
LIMP W 268°
4 Legnago 29.1 NM
LIDL NE 45°
(C) BOLOGNA 29.1 NM
LIPE ( WX ) SE 135°
4 Pavullo 35.5 NM
LIDP S 183°
VFR Chart
Flight Planning at SkyVector.com